Philadelphia, Pennsylvania
Traffic Map
Current Weather Conditions
Philadelphia, Pennsylvania
Scattered Clouds
Scattered Clouds
27°
Feels Like: 28°
Wind Chill: 27° Ceiling: Unl
Heat Index: 28° Visibility: 10mi
Dew Point: 18° Wind: 8mph
Humidity: 58% Direction: 340° (NNW)
Pressure: 30.04in Gusts: 0mph
Raw Report DataKPHL 211354Z 34007KT 10SM FEW110 SCT240 SCT280 27/18 A3004 RMK AO2 SLP171 T02670178
Traffic Incident Summary
Active as of:
Severity:
Category:
InformationThere was an issue retrieving the traffic information for this location. Please try a different location or try again shortly.
Advertisements